createdAt,value
2022-08-03T00:01:03.487Z,73.25
2022-08-03T00:03:34.917Z,74.07
2022-08-03T00:06:05.205Z,73.96
2022-08-03T00:08:34.295Z,74.25
2022-08-03T00:11:09.849Z,75.05
2022-08-03T00:13:39.124Z,74.65
2022-08-03T00:18:57.657Z,76.68
2022-08-03T00:21:27.093Z,76.03
2022-08-03T00:23:56.221Z,77.50
2022-08-03T00:26:25.177Z,78.29
2022-08-03T00:28:54.002Z,75.01
2022-08-03T00:31:39.824Z,75.02
2022-08-03T00:34:16.589Z,74.73
2022-08-03T00:37:06.533Z,78.64
2022-08-03T00:39:35.781Z,79.40
2022-08-03T00:42:05.808Z,78.02
2022-08-03T00:44:41.426Z,76.94
2022-08-03T00:47:17.008Z,78.59
2022-08-03T00:49:46.513Z,80.91
2022-08-03T00:52:20.161Z,81.90
2022-08-03T00:54:49.843Z,84.55
2022-08-03T00:57:19.079Z,86.87
2022-08-03T00:59:48.782Z,86.14
2022-08-03T01:02:19.689Z,87.11
2022-08-03T01:04:48.830Z,89.22
2022-08-03T01:07:28.973Z,90.77
2022-08-03T01:10:17.402Z,92.70
2022-08-03T01:13:01.028Z,85.14
2022-08-03T01:15:43.684Z,85.66
2022-08-03T01:18:24.044Z,89.90
2022-08-03T01:20:59.476Z,91.97
2022-08-03T01:23:58.314Z,94.53
2022-08-03T01:27:03.963Z,96.06
2022-08-03T01:30:05.922Z,97.46
2022-08-03T01:33:02.536Z,99.57
2022-08-03T01:35:43.701Z,100.00
2022-08-03T01:38:17.688Z,100.00
2022-08-03T01:40:49.364Z,100.00
2022-08-03T01:44:26.644Z,99.28
2022-08-03T01:46:14.785Z,94.58
2022-08-03T01:48:47.657Z,90.23
2022-08-03T01:52:03.583Z,88.67
2022-08-03T01:54:22.410Z,86.45
2022-08-03T01:56:57.212Z,88.75
2022-08-03T01:59:31.325Z,92.49
2022-08-03T02:02:32.060Z,93.64
2022-08-03T02:04:58.035Z,91.59
2022-08-03T02:07:31.080Z,90.17
2022-08-03T02:10:06.349Z,90.00
2022-08-03T02:12:38.483Z,89.97
2022-08-03T02:15:09.904Z,89.38
2022-08-03T02:17:47.627Z,90.38
2022-08-03T02:20:18.633Z,90.12
2022-08-03T02:22:49.660Z,88.92
2022-08-03T02:25:18.694Z,88.38
2022-08-03T02:27:54.137Z,88.32
2022-08-03T02:30:24.522Z,88.95
2022-08-03T02:32:59.408Z,89.69
2022-08-03T02:35:32.535Z,88.56
2022-08-03T02:38:07.669Z,87.78
2022-08-03T02:40:42.698Z,89.00
2022-08-03T02:43:22.256Z,88.78
2022-08-03T02:45:54.501Z,88.51
2022-08-03T02:48:34.288Z,88.06
2022-08-03T02:51:08.893Z,89.03
2022-08-03T02:53:45.044Z,90.20
2022-08-03T02:56:16.758Z,90.62
2022-08-03T02:58:49.942Z,90.47
2022-08-03T03:01:25.013Z,91.68
2022-08-03T03:03:59.500Z,91.63
2022-08-03T03:06:32.423Z,89.85
2022-08-03T03:09:03.574Z,90.49
2022-08-03T03:11:36.457Z,89.26
2022-08-03T03:14:06.484Z,87.12
2022-08-03T03:16:45.335Z,87.27
2022-08-03T03:19:27.123Z,87.78
2022-08-03T03:21:58.408Z,88.77
2022-08-03T03:24:29.973Z,92.83
2022-08-03T03:26:59.693Z,95.53
2022-08-03T03:29:30.404Z,98.01
2022-08-03T03:32:09.735Z,99.30
2022-08-03T03:34:41.680Z,98.75
2022-08-03T03:37:13.902Z,98.77
2022-08-03T03:39:42.861Z,98.50
2022-08-03T03:42:12.459Z,98.70
2022-08-03T03:44:41.638Z,99.65
2022-08-03T03:47:14.074Z,99.19
2022-08-03T03:49:53.201Z,95.53
2022-08-03T03:52:24.464Z,94.26
2022-08-03T03:54:57.573Z,94.13
2022-08-03T03:57:30.832Z,87.88
2022-08-03T04:00:02.413Z,82.85
2022-08-03T04:02:31.356Z,84.86
2022-08-03T04:05:18.909Z,82.61
2022-08-03T04:08:16.889Z,80.81
2022-08-03T04:11:04.140Z,76.99
2022-08-03T04:13:38.828Z,75.12
2022-08-03T04:16:14.584Z,74.83
2022-08-03T04:18:49.673Z,72.41
2022-08-03T04:21:27.763Z,70.85
2022-08-03T04:24:02.299Z,70.96
2022-08-03T04:26:36.680Z,69.83
2022-08-03T04:29:11.864Z,69.38
2022-08-03T04:31:43.532Z,68.57
2022-08-03T04:34:12.628Z,67.78
2022-08-03T04:36:58.767Z,67.73
2022-08-03T04:39:31.910Z,67.59
2022-08-03T04:42:09.220Z,68.07
2022-08-03T04:44:43.143Z,69.34
2022-08-03T04:47:14.718Z,69.11
2022-08-03T04:49:46.735Z,69.26
2022-08-03T04:52:17.623Z,68.76
2022-08-03T04:54:50.456Z,68.77
2022-08-03T04:57:23.669Z,69.37
2022-08-03T05:00:03.106Z,68.57
2022-08-03T05:02:35.021Z,69.26
2022-08-03T05:05:03.900Z,68.67
2022-08-03T05:07:36.296Z,68.78
2022-08-03T05:10:09.127Z,68.97
2022-08-03T05:12:45.934Z,68.83
2022-08-03T05:15:16.520Z,68.30
2022-08-03T05:17:45.909Z,68.31
2022-08-03T05:20:18.795Z,67.88
2022-08-03T05:22:50.035Z,67.27
2022-08-03T05:25:27.109Z,67.01
2022-08-03T05:27:56.896Z,65.83
2022-08-03T05:30:30.938Z,64.01
2022-08-03T05:33:05.274Z,58.00
2022-08-03T05:36:00.685Z,54.92
2022-08-03T05:38:28.952Z,51.66
2022-08-03T05:41:22.399Z,50.14
2022-08-03T05:43:54.249Z,49.03
2022-08-03T05:46:24.071Z,47.17
2022-08-03T05:48:56.039Z,46.45
2022-08-03T05:51:25.110Z,45.57
2022-08-03T05:53:55.344Z,44.82
2022-08-03T05:56:26.203Z,44.32
2022-08-03T05:58:55.620Z,43.56
2022-08-03T06:01:27.191Z,43.13
2022-08-03T06:03:56.301Z,42.14
2022-08-03T06:06:32.104Z,41.78
2022-08-03T06:09:02.737Z,42.06
2022-08-03T06:11:31.694Z,42.13
2022-08-03T06:14:00.627Z,41.75
2022-08-03T06:16:29.763Z,40.45
2022-08-03T06:18:58.923Z,41.18
2022-08-03T06:21:28.434Z,39.86
2022-08-03T06:23:57.152Z,40.30
2022-08-03T06:26:29.805Z,39.92
2022-08-03T06:28:59.306Z,38.62
2022-08-03T06:31:32.809Z,38.84
2022-08-03T06:34:30.520Z,38.30
2022-08-03T06:37:01.273Z,38.39
2022-08-03T06:39:31.345Z,38.23
2022-08-03T06:42:02.569Z,38.70
2022-08-03T06:44:32.033Z,38.97
2022-08-03T06:47:00.833Z,37.72
2022-08-03T06:49:30.061Z,38.26
2022-08-03T06:52:11.965Z,36.93
2022-08-03T06:54:49.625Z,38.95
2022-08-03T06:57:20.130Z,38.40
2022-08-03T07:00:10.700Z,37.15
2022-08-03T07:02:38.268Z,37.90
2022-08-03T07:05:10.822Z,37.95
2022-08-03T07:07:40.167Z,35.75
2022-08-03T07:10:11.881Z,35.63
2022-08-03T07:12:52.620Z,36.38
2022-08-03T07:15:54.616Z,36.46
2022-08-03T07:18:14.819Z,36.04
2022-08-03T07:20:46.827Z,36.02
2022-08-03T07:23:19.186Z,34.80
2022-08-03T07:25:48.481Z,35.24
2022-08-03T07:28:19.713Z,36.16
2022-08-03T07:30:48.885Z,36.50
2022-08-03T07:33:18.622Z,35.55
2022-08-03T07:35:50.518Z,35.71
2022-08-03T07:38:21.243Z,36.38
2022-08-03T07:40:50.589Z,34.27
2022-08-03T07:43:21.184Z,34.96
2022-08-03T07:45:51.501Z,33.85
2022-08-03T07:48:20.779Z,34.68
2022-08-03T07:50:51.382Z,34.34
2022-08-03T07:53:22.622Z,34.05
2022-08-03T07:55:54.679Z,33.75
2022-08-03T07:58:25.637Z,33.67
2022-08-03T08:00:57.980Z,34.52
2022-08-03T08:03:29.899Z,34.37
2022-08-03T08:06:19.625Z,34.50
2022-08-03T08:08:49.804Z,36.42
2022-08-03T08:11:22.353Z,37.39
2022-08-03T08:13:52.636Z,38.39
2022-08-03T08:16:21.602Z,37.93
2022-08-03T08:18:50.670Z,38.10
2022-08-03T08:21:19.687Z,38.28
2022-08-03T08:23:57.871Z,37.54
2022-08-03T08:26:26.798Z,36.66
2022-08-03T08:28:57.295Z,37.67
2022-08-03T08:31:26.648Z,38.57
2022-08-03T08:34:04.387Z,40.83
2022-08-03T08:36:34.683Z,40.31
2022-08-03T08:39:04.011Z,38.72
2022-08-03T08:41:35.001Z,37.48
2022-08-03T08:44:10.380Z,35.93
2022-08-03T08:46:42.033Z,33.83
2022-08-03T08:49:13.696Z,34.54
2022-08-03T08:51:59.166Z,36.62
2022-08-03T08:54:34.307Z,36.63
2022-08-03T08:57:21.084Z,36.34
2022-08-03T08:59:59.594Z,34.95
2022-08-03T09:02:35.641Z,36.04
2022-08-03T09:05:07.500Z,34.50
2022-08-03T09:07:37.266Z,34.47
2022-08-03T09:10:12.313Z,34.32
2022-08-03T09:12:47.290Z,34.60
2022-08-03T09:15:26.293Z,33.63
2022-08-03T09:17:58.368Z,32.30
2022-08-03T09:20:32.317Z,32.34
2022-08-03T09:23:19.033Z,33.14
2022-08-03T09:26:01.853Z,31.95
2022-08-03T09:28:59.916Z,33.54
2022-08-03T09:31:35.997Z,36.04
2022-08-03T09:34:08.565Z,32.20
2022-08-03T09:36:40.636Z,34.28
2022-08-03T09:39:12.650Z,33.21
2022-08-03T09:41:48.788Z,34.13
2022-08-03T09:44:24.809Z,35.83
2022-08-03T09:46:57.656Z,36.00
2022-08-03T09:49:29.025Z,36.37
2022-08-03T09:52:02.687Z,34.51
2022-08-03T09:54:54.242Z,33.69
2022-08-03T09:57:25.466Z,33.17
2022-08-03T10:00:04.535Z,33.25
2022-08-03T10:02:39.146Z,32.71
2022-08-03T10:05:19.403Z,32.64
2022-08-03T10:07:51.626Z,33.34
2022-08-03T10:10:30.209Z,32.36
2022-08-03T10:13:02.397Z,32.95
2022-08-03T10:16:21.476Z,35.16
2022-08-03T10:18:22.518Z,33.76
2022-08-03T10:20:54.773Z,32.65
2022-08-03T10:23:25.231Z,33.21
2022-08-03T10:26:01.715Z,33.75
2022-08-03T10:28:41.560Z,34.69
2022-08-03T10:31:27.742Z,35.56
2022-08-03T10:34:06.108Z,33.81
2022-08-03T10:36:38.669Z,34.89
2022-08-03T10:39:15.990Z,36.80
2022-08-03T10:41:50.923Z,37.00
2022-08-03T10:44:32.769Z,37.63
2022-08-03T10:47:02.837Z,37.51
2022-08-03T10:49:36.311Z,38.65
2022-08-03T10:52:31.363Z,36.07
2022-08-03T10:55:14.389Z,37.07
2022-08-03T10:57:58.388Z,36.65
2022-08-03T11:00:31.261Z,35.78
2022-08-03T11:03:18.778Z,35.50
2022-08-03T11:05:52.560Z,36.86
2022-08-03T11:08:28.902Z,35.03
2022-08-03T11:11:02.630Z,37.24
2022-08-03T11:13:34.119Z,37.85
2022-08-03T11:16:30.980Z,37.40
2022-08-03T11:19:09.512Z,37.46
2022-08-03T11:22:00.577Z,37.11
2022-08-03T11:25:01.957Z,37.77
2022-08-03T11:27:37.780Z,38.41
2022-08-03T11:30:14.088Z,39.25
2022-08-03T11:32:59.475Z,38.23
2022-08-03T11:35:31.325Z,38.20
2022-08-03T11:38:14.005Z,38.31
2022-08-03T11:40:47.911Z,36.75
2022-08-03T11:43:47.974Z,35.67
2022-08-03T11:46:28.520Z,37.15
2022-08-03T11:49:10.782Z,38.75
2022-08-03T11:51:44.979Z,36.24
2022-08-03T11:54:17.962Z,35.75
2022-08-03T11:56:50.030Z,36.69
2022-08-03T11:59:22.259Z,36.30
2022-08-03T12:01:52.369Z,35.11
2022-08-03T12:04:21.721Z,35.31
2022-08-03T12:07:05.130Z,36.15
2022-08-03T12:09:38.712Z,35.25
2022-08-03T12:12:29.515Z,34.85
2022-08-03T12:14:58.677Z,34.61
2022-08-03T12:17:35.672Z,34.39
2022-08-03T12:20:07.553Z,35.06
2022-08-03T12:22:41.938Z,35.43
2022-08-03T12:25:38.908Z,35.72
2022-08-03T12:28:36.204Z,35.34
2022-08-03T12:31:09.729Z,34.05
2022-08-03T12:33:59.065Z,33.92
2022-08-03T12:36:29.492Z,33.18
2022-08-03T12:39:01.779Z,34.66
2022-08-03T12:41:35.502Z,34.31
2022-08-03T12:44:05.434Z,35.76
2022-08-03T12:46:37.274Z,36.38
2022-08-03T12:49:11.316Z,35.38
2022-08-03T12:51:58.509Z,35.63
2022-08-03T12:54:31.778Z,35.77
2022-08-03T12:57:04.732Z,35.15
2022-08-03T12:59:40.680Z,35.46
2022-08-03T13:02:18.069Z,35.91
2022-08-03T13:04:50.171Z,34.89
2022-08-03T13:07:20.955Z,33.71
2022-08-03T13:09:53.493Z,36.06
2022-08-03T13:12:25.680Z,35.17
2022-08-03T13:14:58.146Z,34.82
2022-08-03T13:17:27.424Z,34.68
2022-08-03T13:19:59.620Z,34.76
2022-08-03T13:22:30.687Z,34.92
2022-08-03T13:25:01.572Z,35.20
2022-08-03T13:28:03.259Z,34.31
2022-08-03T13:30:28.197Z,34.91
2022-08-03T13:33:01.084Z,35.21
2022-08-03T13:35:29.706Z,34.71
2022-08-03T13:37:58.511Z,33.08
2022-08-03T13:40:30.055Z,31.50
2022-08-03T13:43:02.313Z,33.52
2022-08-03T13:45:31.292Z,34.00
2022-08-03T13:48:01.432Z,33.70
2022-08-03T13:50:31.485Z,34.76
2022-08-03T13:53:00.187Z,33.87
2022-08-03T13:55:32.725Z,33.62
2022-08-03T13:58:07.522Z,33.91
2022-08-03T14:00:36.079Z,31.74
2022-08-03T14:03:13.274Z,34.23
2022-08-03T14:05:44.364Z,34.31
2022-08-03T14:08:13.903Z,32.95
2022-08-03T14:10:46.131Z,32.17
2022-08-03T14:13:16.711Z,32.63
2022-08-03T14:15:49.886Z,34.10
2022-08-03T14:18:27.943Z,34.81
2022-08-03T14:21:07.371Z,34.02
2022-08-03T14:23:38.743Z,34.80
2022-08-03T14:26:08.705Z,34.06
2022-08-03T14:28:39.430Z,35.03
2022-08-03T14:32:09.047Z,36.26
2022-08-03T14:33:56.912Z,36.51
2022-08-03T14:36:25.538Z,36.74
2022-08-03T14:38:57.097Z,36.67
2022-08-03T14:41:29.968Z,35.17
2022-08-03T14:44:01.106Z,35.60
2022-08-03T14:46:32.373Z,34.92
2022-08-03T14:50:36.644Z,34.73
2022-08-03T14:51:54.149Z,33.21
2022-08-03T14:54:23.792Z,33.11
2022-08-03T14:56:53.346Z,32.61
2022-08-03T14:59:23.468Z,32.21
2022-08-03T15:02:02.476Z,32.75
2022-08-03T15:04:35.719Z,32.74
2022-08-03T15:07:04.967Z,32.95
2022-08-03T15:09:34.224Z,34.03
2022-08-03T15:12:03.144Z,35.55
2022-08-03T15:14:34.998Z,36.57
2022-08-03T15:20:23.405Z,35.78
2022-08-03T15:23:34.533Z,33.55
2022-08-03T15:26:33.953Z,32.30
2022-08-03T15:30:05.334Z,30.98
2022-08-03T15:32:31.836Z,30.99
2022-08-03T15:35:01.990Z,31.08
2022-08-03T15:37:38.762Z,30.03
2022-08-03T15:40:10.786Z,30.42
2022-08-03T15:42:40.260Z,30.64
2022-08-03T15:45:17.836Z,30.14
2022-08-03T15:47:49.680Z,31.57
2022-08-03T15:50:20.515Z,31.60
2022-08-03T15:52:49.687Z,31.16
2022-08-03T15:55:22.181Z,30.47
2022-08-03T15:59:09.218Z,31.11
2022-08-03T16:00:42.859Z,30.72
2022-08-03T16:03:15.091Z,30.40
2022-08-03T16:05:44.861Z,31.17
2022-08-03T16:08:16.100Z,31.08
2022-08-03T16:10:48.806Z,31.07
2022-08-03T16:13:21.354Z,31.48
2022-08-03T16:16:13.463Z,32.53
2022-08-03T16:18:43.000Z,32.62
2022-08-03T16:21:14.852Z,33.43
2022-08-03T16:23:50.262Z,32.83
2022-08-03T16:26:20.864Z,33.60
2022-08-03T16:28:52.192Z,33.23
2022-08-03T16:31:28.063Z,33.44
2022-08-03T16:33:57.282Z,33.70
2022-08-03T16:36:28.702Z,33.68
2022-08-03T16:39:04.185Z,33.70
2022-08-03T16:41:53.706Z,34.39
2022-08-03T16:44:23.586Z,35.32
2022-08-03T16:47:05.589Z,37.11
2022-08-03T16:49:54.806Z,36.27
2022-08-03T16:52:27.473Z,35.41
2022-08-03T16:54:59.685Z,35.07
2022-08-03T16:57:58.179Z,35.83
2022-08-03T17:00:34.251Z,34.88
2022-08-03T17:03:24.260Z,36.60
2022-08-03T17:05:53.763Z,36.88
2022-08-03T17:08:31.648Z,37.91
2022-08-03T17:11:01.249Z,38.86
2022-08-03T17:13:39.737Z,40.32
2022-08-03T17:16:15.555Z,41.81
2022-08-03T17:18:54.302Z,41.34
2022-08-03T17:21:32.379Z,42.32
2022-08-03T17:24:13.076Z,41.61
2022-08-03T17:26:45.315Z,41.87
2022-08-03T17:29:22.997Z,41.86
2022-08-03T17:32:11.993Z,42.58
2022-08-03T17:34:50.085Z,41.35
2022-08-03T17:37:50.546Z,41.62
2022-08-03T17:40:17.963Z,41.75
2022-08-03T17:42:56.234Z,41.75
2022-08-03T17:45:52.181Z,42.34
2022-08-03T17:48:18.620Z,42.82
2022-08-03T17:50:55.773Z,42.53
2022-08-03T17:53:54.833Z,43.35
2022-08-03T17:56:44.773Z,44.66
2022-08-03T17:59:50.689Z,45.66
2022-08-03T18:02:55.048Z,47.39
2022-08-03T18:06:10.492Z,47.19
2022-08-03T18:08:35.183Z,45.78
2022-08-03T18:11:14.631Z,45.37
2022-08-03T18:13:57.994Z,45.54
2022-08-03T18:16:35.347Z,45.44
2022-08-03T18:19:13.700Z,45.82
2022-08-03T18:22:03.398Z,45.91
2022-08-03T18:24:42.130Z,48.13
2022-08-03T18:27:12.740Z,50.39
2022-08-03T18:29:46.801Z,51.04
2022-08-03T18:32:17.442Z,51.49
2022-08-03T18:34:53.522Z,51.93
2022-08-03T18:37:27.699Z,53.16
2022-08-03T18:40:04.958Z,55.26
2022-08-03T18:42:52.787Z,56.49
2022-08-03T18:45:57.254Z,58.67
2022-08-03T18:48:27.138Z,60.19
2022-08-03T18:51:01.147Z,61.25
2022-08-03T18:54:02.275Z,64.63
2022-08-03T18:56:43.525Z,67.17
2022-08-03T18:59:30.247Z,69.86
2022-08-03T19:02:09.101Z,71.45
2022-08-03T19:04:45.923Z,73.42
2022-08-03T19:07:23.452Z,74.71
2022-08-03T19:09:57.827Z,75.61
2022-08-03T19:12:39.806Z,77.70
2022-08-03T19:15:15.961Z,78.10
2022-08-03T19:17:57.663Z,78.47
2022-08-03T19:20:33.011Z,79.48
2022-08-03T19:23:08.978Z,81.54
2022-08-03T19:26:01.840Z,82.61
2022-08-03T19:28:39.129Z,84.95
2022-08-03T19:31:12.584Z,87.46
2022-08-03T19:33:57.638Z,88.20
2022-08-03T19:36:32.301Z,90.24
2022-08-03T19:39:05.047Z,91.17
2022-08-03T19:41:45.644Z,90.93
2022-08-03T19:44:35.613Z,91.75
2022-08-03T19:47:11.484Z,93.13
2022-08-03T19:49:57.070Z,94.07
2022-08-03T19:52:46.944Z,94.82
2022-08-03T19:55:18.474Z,97.44
2022-08-03T19:57:56.236Z,98.75
2022-08-03T20:00:35.835Z,98.89
2022-08-03T20:03:22.050Z,100.00
2022-08-03T20:05:57.323Z,100.00
2022-08-03T20:08:28.919Z,100.00
2022-08-03T20:10:59.821Z,100.00
2022-08-03T20:13:30.539Z,100.00
2022-08-03T20:16:10.996Z,100.00
2022-08-03T20:18:40.146Z,100.00
2022-08-03T20:21:15.173Z,100.00
2022-08-03T20:24:01.687Z,100.00
2022-08-03T20:26:33.772Z,100.00
2022-08-03T20:29:09.053Z,100.00
2022-08-03T20:31:40.842Z,100.00
2022-08-03T20:34:10.646Z,100.00
2022-08-03T20:36:39.371Z,100.00
2022-08-03T20:39:09.116Z,100.00
2022-08-03T20:41:45.021Z,100.00
2022-08-03T20:44:13.769Z,100.00
2022-08-03T20:46:56.317Z,100.00
2022-08-03T20:49:29.572Z,100.00
2022-08-03T20:52:18.536Z,100.00
2022-08-03T20:54:49.130Z,100.00
2022-08-03T20:57:22.199Z,100.00
2022-08-03T20:59:53.495Z,100.00
2022-08-03T21:02:30.382Z,100.00
2022-08-03T21:05:08.636Z,100.00
2022-08-03T21:07:45.992Z,100.00
2022-08-03T21:10:37.907Z,100.00
2022-08-03T21:13:17.414Z,100.00
2022-08-03T21:16:04.089Z,100.00
2022-08-03T21:19:03.251Z,100.00
2022-08-03T21:21:34.314Z,100.00
2022-08-03T21:24:07.682Z,100.00
2022-08-03T21:26:41.415Z,100.00
2022-08-03T21:29:10.784Z,100.00
2022-08-03T21:31:49.592Z,100.00
2022-08-03T21:34:23.762Z,100.00
2022-08-03T21:36:54.467Z,100.00
2022-08-03T21:39:26.461Z,100.00
2022-08-03T21:41:56.129Z,100.00
2022-08-03T21:44:28.915Z,100.00
2022-08-03T21:47:00.703Z,100.00
2022-08-03T21:50:07.972Z,100.00
2022-08-03T21:52:44.466Z,100.00
2022-08-03T21:55:28.793Z,100.00
2022-08-03T21:58:06.783Z,100.00
2022-08-03T22:00:46.402Z,100.00
2022-08-03T22:03:23.904Z,100.00
2022-08-03T22:06:10.178Z,100.00
2022-08-03T22:09:30.937Z,100.00
2022-08-03T22:12:08.324Z,100.00
2022-08-03T22:14:37.381Z,100.00
2022-08-03T22:17:53.929Z,100.00
2022-08-03T22:20:20.134Z,100.00
2022-08-03T22:23:04.570Z,100.00
2022-08-03T22:25:35.366Z,100.00
2022-08-03T22:28:09.084Z,100.00
2022-08-03T22:30:39.462Z,100.00
2022-08-03T22:33:11.905Z,100.00
2022-08-03T22:35:47.842Z,100.00
2022-08-03T22:38:22.212Z,100.00
2022-08-03T22:40:54.914Z,100.00
2022-08-03T22:43:26.001Z,100.00
2022-08-03T22:46:08.835Z,100.00
2022-08-03T22:48:44.559Z,100.00
2022-08-03T22:51:13.072Z,100.00
2022-08-03T22:53:48.515Z,100.00
2022-08-03T22:56:20.395Z,100.00
2022-08-03T22:58:49.253Z,100.00
2022-08-03T23:01:26.475Z,100.00
2022-08-03T23:04:06.835Z,100.00
2022-08-03T23:06:40.935Z,100.00
2022-08-03T23:09:16.644Z,100.00
2022-08-03T23:11:59.283Z,100.00
2022-08-03T23:14:31.510Z,100.00
2022-08-03T23:17:04.776Z,100.00
2022-08-03T23:19:41.543Z,100.00
2022-08-03T23:22:29.444Z,100.00
2022-08-03T23:25:04.245Z,100.00
2022-08-03T23:27:34.259Z,100.00
2022-08-03T23:30:04.051Z,100.00
2022-08-03T23:32:33.000Z,100.00
2022-08-03T23:35:21.512Z,100.00
2022-08-03T23:38:21.293Z,100.00
2022-08-03T23:40:44.210Z,100.00
2022-08-03T23:43:45.119Z,100.00
2022-08-03T23:46:14.498Z,100.00
2022-08-03T23:48:47.059Z,100.00
2022-08-03T23:51:30.484Z,100.00
2022-08-03T23:54:17.640Z,100.00
2022-08-03T23:57:06.349Z,100.00
2022-08-03T23:59:45.557Z,100.00
